createdAt,value
2017-09-26T00:01:22.909Z,14.40
2017-09-26T00:03:50.319Z,14.42
2017-09-26T00:06:17.718Z,14.43
2017-09-26T00:08:45.111Z,14.42
2017-09-26T00:11:12.515Z,14.41
2017-09-26T00:13:39.914Z,14.36
2017-09-26T00:16:07.315Z,14.22
2017-09-26T00:18:34.710Z,14.20
2017-09-26T00:21:02.107Z,14.28
2017-09-26T00:23:29.510Z,14.37
2017-09-26T00:25:56.906Z,14.42
2017-09-26T00:28:24.316Z,14.45
2017-09-26T00:30:51.715Z,14.45
2017-09-26T00:33:19.114Z,14.45
2017-09-26T00:35:46.523Z,14.48
2017-09-26T00:38:13.930Z,14.47
2017-09-26T00:40:41.336Z,14.47
2017-09-26T00:43:08.731Z,14.51
2017-09-26T00:45:36.135Z,14.50
2017-09-26T00:48:03.546Z,14.45
2017-09-26T00:50:30.952Z,14.39
2017-09-26T00:52:58.357Z,14.37
2017-09-26T00:55:25.758Z,14.38
2017-09-26T00:57:53.154Z,14.38
2017-09-26T01:00:20.558Z,14.40
2017-09-26T01:02:47.950Z,14.40
2017-09-26T01:05:17.298Z,14.42
2017-09-26T01:07:48.199Z,14.42
2017-09-26T01:10:15.598Z,14.45
2017-09-26T01:12:42.994Z,14.45
2017-09-26T01:15:10.393Z,14.44
2017-09-26T01:17:37.850Z,14.44
2017-09-26T01:20:05.246Z,14.40
2017-09-26T01:22:32.630Z,14.40
2017-09-26T01:25:00.035Z,14.41
2017-09-26T01:27:27.436Z,14.49
2017-09-26T01:29:54.848Z,14.53
2017-09-26T01:32:22.242Z,14.55
2017-09-26T01:34:49.634Z,14.56
2017-09-26T01:37:17.039Z,14.58
2017-09-26T01:39:44.434Z,14.59
2017-09-26T01:42:11.835Z,14.60
2017-09-26T01:44:39.230Z,14.62
2017-09-26T01:47:06.638Z,14.65
2017-09-26T01:49:34.047Z,14.65
2017-09-26T01:52:01.438Z,14.66
2017-09-26T01:54:28.835Z,14.67
2017-09-26T01:56:59.594Z,14.68
2017-09-26T02:02:27.626Z,14.68
2017-09-26T02:04:55.034Z,14.70
2017-09-26T02:07:22.430Z,14.70
2017-09-26T02:09:49.826Z,14.73
2017-09-26T02:12:17.229Z,14.75
2017-09-26T02:14:44.622Z,14.77
2017-09-26T02:17:12.050Z,14.79
2017-09-26T02:19:39.450Z,14.83
2017-09-26T02:22:06.849Z,14.85
2017-09-26T02:24:34.267Z,14.86
2017-09-26T02:27:01.664Z,14.91
2017-09-26T02:29:29.076Z,14.94
2017-09-26T02:31:56.471Z,14.92
2017-09-26T02:34:23.872Z,14.95
2017-09-26T02:36:51.274Z,14.96
2017-09-26T02:39:18.674Z,15.00
2017-09-26T02:41:46.079Z,14.95
2017-09-26T02:44:13.475Z,15.00
2017-09-26T02:46:40.867Z,15.01
2017-09-26T02:49:08.270Z,14.92
2017-09-26T02:51:35.666Z,14.91
2017-09-26T02:54:03.070Z,14.89
2017-09-26T02:56:30.466Z,14.86
2017-09-26T02:58:57.861Z,14.82
2017-09-26T03:01:25.273Z,14.92
2017-09-26T03:03:52.673Z,14.97
2017-09-26T03:06:20.094Z,15.01
2017-09-26T03:08:47.486Z,15.05
2017-09-26T03:11:14.885Z,15.04
2017-09-26T03:13:42.287Z,14.93
2017-09-26T03:16:09.686Z,15.04
2017-09-26T03:18:37.094Z,15.09
2017-09-26T03:21:04.487Z,15.11
2017-09-26T03:23:31.882Z,15.06
2017-09-26T03:25:59.283Z,15.06
2017-09-26T03:28:26.682Z,15.04
2017-09-26T03:30:54.087Z,15.11
2017-09-26T03:33:21.482Z,15.06
2017-09-26T03:35:48.894Z,15.10
2017-09-26T03:38:16.298Z,15.04
2017-09-26T03:40:43.765Z,14.95
2017-09-26T03:43:11.167Z,14.91
2017-09-26T03:45:38.570Z,14.91
2017-09-26T03:48:05.970Z,14.99
2017-09-26T03:50:33.365Z,14.94
2017-09-26T03:53:00.765Z,14.90
2017-09-26T03:55:28.162Z,14.84
2017-09-26T03:57:55.570Z,14.89
2017-09-26T04:00:22.987Z,14.90
2017-09-26T04:02:50.392Z,14.80
2017-09-26T04:05:17.791Z,14.79
2017-09-26T04:07:45.195Z,14.80
2017-09-26T04:10:12.587Z,14.80
2017-09-26T04:12:39.995Z,14.83
2017-09-26T04:15:07.389Z,14.84
2017-09-26T04:17:34.782Z,14.92
2017-09-26T04:20:02.209Z,14.93
2017-09-26T04:22:29.593Z,14.96
2017-09-26T04:24:57.006Z,15.03
2017-09-26T04:27:24.406Z,15.06
2017-09-26T04:29:51.798Z,15.11
2017-09-26T04:32:19.202Z,15.15
2017-09-26T04:34:46.603Z,15.13
2017-09-26T04:37:14.017Z,15.10
2017-09-26T04:39:41.410Z,15.12
2017-09-26T04:42:08.806Z,15.03
2017-09-26T04:44:36.208Z,15.03
2017-09-26T04:47:03.604Z,14.90
2017-09-26T04:49:31.006Z,14.85
2017-09-26T04:51:58.404Z,14.94
2017-09-26T04:54:25.802Z,15.03
2017-09-26T04:56:53.210Z,15.06
2017-09-26T04:59:20.603Z,15.02
2017-09-26T05:01:48.010Z,14.88
2017-09-26T05:04:15.406Z,14.79
2017-09-26T05:06:42.798Z,14.84
2017-09-26T05:09:10.198Z,14.92
2017-09-26T05:11:37.594Z,14.97
2017-09-26T05:14:05.006Z,14.84
2017-09-26T05:16:32.405Z,14.81
2017-09-26T05:18:59.800Z,14.78
2017-09-26T05:21:27.198Z,14.85
2017-09-26T05:23:54.599Z,14.82
2017-09-26T05:26:22.006Z,14.80
2017-09-26T05:28:49.401Z,14.79
2017-09-26T05:31:16.811Z,14.80
2017-09-26T05:33:44.211Z,14.80
2017-09-26T05:36:11.607Z,14.85
2017-09-26T05:38:39.016Z,14.86
2017-09-26T05:41:06.412Z,14.95
2017-09-26T05:43:33.803Z,15.10
2017-09-26T05:46:01.209Z,15.16
2017-09-26T05:48:28.603Z,15.20
2017-09-26T05:50:56.015Z,15.21
2017-09-26T05:53:23.410Z,15.19
2017-09-26T05:55:50.807Z,15.09
2017-09-26T05:58:18.211Z,15.08
2017-09-26T06:00:45.614Z,15.09
2017-09-26T06:03:13.032Z,15.05
2017-09-26T06:05:40.420Z,15.13
2017-09-26T06:08:07.817Z,14.98
2017-09-26T06:10:35.236Z,14.97
2017-09-26T06:13:02.622Z,15.02
2017-09-26T06:15:30.034Z,15.08
2017-09-26T06:17:57.435Z,15.12
2017-09-26T06:20:24.830Z,15.12
2017-09-26T06:22:52.236Z,15.13
2017-09-26T06:25:19.629Z,15.10
2017-09-26T06:27:47.047Z,15.09
2017-09-26T06:30:14.443Z,15.13
2017-09-26T06:32:41.850Z,15.08
2017-09-26T06:35:09.252Z,15.08
2017-09-26T06:37:36.642Z,15.17
2017-09-26T06:40:04.051Z,15.20
2017-09-26T06:42:31.455Z,15.20
2017-09-26T06:44:58.845Z,15.29
2017-09-26T06:47:26.246Z,15.34
2017-09-26T06:49:53.639Z,15.36
2017-09-26T06:52:21.046Z,15.40
2017-09-26T06:54:48.443Z,15.46
2017-09-26T06:57:15.844Z,15.53
2017-09-26T06:59:43.251Z,15.60
2017-09-26T07:02:10.642Z,15.77
2017-09-26T07:04:38.054Z,15.88
2017-09-26T07:07:05.498Z,15.96
2017-09-26T07:09:32.876Z,16.08
2017-09-26T07:12:00.274Z,16.21
2017-09-26T07:14:27.695Z,16.31
2017-09-26T07:16:55.090Z,16.39
2017-09-26T07:19:22.483Z,16.47
2017-09-26T07:21:49.883Z,16.61
2017-09-26T07:24:17.278Z,16.79
2017-09-26T07:26:44.683Z,16.96
2017-09-26T07:29:12.086Z,17.18
2017-09-26T07:31:39.482Z,17.37
2017-09-26T07:34:06.875Z,17.53
2017-09-26T07:36:34.275Z,17.68
2017-09-26T07:39:01.676Z,17.82
2017-09-26T07:41:29.086Z,18.00
2017-09-26T07:43:56.482Z,18.14
2017-09-26T07:46:23.873Z,18.22
2017-09-26T07:48:51.287Z,18.39
2017-09-26T07:51:18.692Z,18.53
2017-09-26T07:53:46.095Z,18.63
2017-09-26T07:56:13.492Z,18.64
2017-09-26T07:58:40.922Z,18.65
2017-09-26T08:01:08.510Z,18.71
2017-09-26T08:03:36.068Z,18.76
2017-09-26T08:06:03.695Z,18.82
2017-09-26T08:08:31.287Z,18.88
2017-09-26T08:10:58.683Z,18.94
2017-09-26T08:13:26.090Z,19.02
2017-09-26T08:15:53.483Z,19.13
2017-09-26T08:18:20.891Z,19.20
2017-09-26T08:20:48.282Z,19.26
2017-09-26T08:23:15.684Z,19.31
2017-09-26T08:25:43.087Z,19.34
2017-09-26T08:28:10.482Z,19.39
2017-09-26T08:30:37.919Z,19.43
2017-09-26T08:33:05.307Z,19.43
2017-09-26T08:35:32.707Z,19.42
2017-09-26T08:38:00.106Z,19.54
2017-09-26T08:40:27.506Z,19.60
2017-09-26T08:42:54.920Z,19.73
2017-09-26T08:45:22.315Z,19.77
2017-09-26T08:47:49.715Z,19.89
2017-09-26T08:50:17.112Z,20.05
2017-09-26T08:52:44.516Z,20.12
2017-09-26T08:55:11.915Z,20.23
2017-09-26T08:57:39.311Z,20.15
2017-09-26T09:00:06.712Z,20.11
2017-09-26T09:02:34.110Z,20.28
2017-09-26T09:05:01.508Z,20.57
2017-09-26T09:07:28.928Z,20.69
2017-09-26T09:09:56.331Z,20.54
2017-09-26T09:12:23.726Z,20.44
2017-09-26T09:14:51.133Z,20.80
2017-09-26T09:17:18.530Z,21.18
2017-09-26T09:19:45.938Z,21.59
2017-09-26T09:22:13.343Z,22.05
2017-09-26T09:24:41.003Z,22.38
2017-09-26T09:27:08.407Z,22.71
2017-09-26T09:29:35.821Z,23.17
2017-09-26T09:32:03.215Z,23.10
2017-09-26T09:34:30.610Z,23.14
2017-09-26T09:36:58.014Z,23.66
2017-09-26T09:39:25.422Z,24.16
2017-09-26T09:41:52.814Z,24.63
2017-09-26T09:44:20.222Z,24.69
2017-09-26T09:46:47.613Z,24.51
2017-09-26T09:49:15.012Z,24.70
2017-09-26T09:51:42.409Z,24.98
2017-09-26T09:54:09.810Z,24.04
2017-09-26T09:56:37.216Z,23.45
2017-09-26T09:59:04.610Z,23.60
2017-09-26T10:01:32.006Z,24.34
2017-09-26T10:03:59.414Z,24.17
2017-09-26T10:06:26.806Z,25.06
2017-09-26T10:08:54.220Z,25.20
2017-09-26T10:11:21.610Z,25.36
2017-09-26T10:13:49.007Z,25.55
2017-09-26T10:16:16.402Z,25.92
2017-09-26T10:18:43.808Z,26.30
2017-09-26T10:21:11.198Z,26.40
2017-09-26T10:23:38.612Z,26.16
2017-09-26T10:26:06.051Z,26.45
2017-09-26T10:28:33.459Z,26.77
2017-09-26T10:31:00.859Z,27.22
2017-09-26T10:33:28.262Z,27.04
2017-09-26T10:35:55.662Z,26.96
2017-09-26T10:38:23.058Z,26.71
2017-09-26T10:40:50.518Z,27.28
2017-09-26T10:43:17.898Z,27.74
2017-09-26T10:45:45.307Z,27.66
2017-09-26T10:48:12.711Z,26.97
2017-09-26T10:50:40.110Z,26.69
2017-09-26T10:53:07.507Z,26.90
2017-09-26T10:55:34.914Z,26.61
2017-09-26T10:58:02.318Z,26.56
2017-09-26T11:00:29.718Z,26.33
2017-09-26T11:02:57.131Z,26.41
2017-09-26T11:05:24.558Z,26.50
2017-09-26T11:07:51.955Z,25.98
2017-09-26T11:10:19.434Z,25.46
2017-09-26T11:12:46.818Z,25.15
2017-09-26T11:15:14.215Z,25.09
2017-09-26T11:17:41.669Z,25.04
2017-09-26T11:20:09.047Z,24.65
2017-09-26T11:22:36.451Z,24.64
2017-09-26T11:25:03.850Z,25.47
2017-09-26T11:27:31.246Z,26.47
2017-09-26T11:29:58.660Z,27.07
2017-09-26T11:32:26.073Z,27.54
2017-09-26T11:34:53.453Z,27.62
2017-09-26T11:37:20.860Z,27.14
2017-09-26T11:39:48.257Z,26.89
2017-09-26T11:42:15.687Z,26.87
2017-09-26T11:44:43.094Z,25.91
2017-09-26T11:47:10.498Z,25.56
2017-09-26T11:49:37.894Z,26.06
2017-09-26T11:52:05.312Z,26.22
2017-09-26T11:54:32.714Z,26.21
2017-09-26T11:57:00.115Z,26.11
2017-09-26T11:59:27.512Z,25.81
2017-09-26T12:01:54.914Z,25.39
2017-09-26T12:04:22.306Z,25.08
2017-09-26T12:06:49.723Z,24.68
2017-09-26T12:09:17.126Z,24.11
2017-09-26T12:11:44.538Z,23.67
2017-09-26T12:14:11.951Z,23.35
2017-09-26T12:16:39.350Z,23.03
2017-09-26T12:19:06.761Z,22.82
2017-09-26T12:21:34.165Z,22.44
2017-09-26T12:24:01.557Z,22.43
2017-09-26T12:26:28.963Z,22.02
2017-09-26T12:28:56.362Z,21.41
2017-09-26T12:31:23.775Z,21.17
2017-09-26T12:33:51.174Z,20.90
2017-09-26T12:36:18.655Z,20.41
2017-09-26T12:38:46.097Z,20.35
2017-09-26T12:41:13.499Z,20.41
2017-09-26T12:43:41.002Z,20.27
2017-09-26T12:46:08.403Z,20.28
2017-09-26T12:48:36.135Z,20.24
2017-09-26T12:51:04.238Z,20.20
2017-09-26T12:53:31.639Z,20.19
2017-09-26T12:55:59.065Z,20.13
2017-09-26T12:58:26.463Z,19.97
2017-09-26T13:00:53.892Z,19.95
2017-09-26T13:03:21.304Z,19.93
2017-09-26T13:05:49.522Z,19.80
2017-09-26T13:08:17.114Z,19.69
2017-09-26T13:10:44.518Z,19.73
2017-09-26T13:13:11.974Z,19.89
2017-09-26T13:15:39.383Z,20.06
2017-09-26T13:18:06.784Z,20.12
2017-09-26T13:20:34.195Z,20.18
2017-09-26T13:23:01.598Z,20.24
2017-09-26T13:25:34.191Z,20.17
2017-09-26T13:28:01.735Z,20.02
2017-09-26T13:30:29.184Z,19.90
2017-09-26T13:32:56.590Z,19.86
2017-09-26T13:35:24.070Z,19.67
2017-09-26T13:37:51.672Z,19.64
2017-09-26T13:40:19.055Z,19.57
2017-09-26T13:42:46.453Z,19.43
2017-09-26T13:45:13.859Z,19.21
2017-09-26T13:47:41.262Z,18.78
2017-09-26T13:50:08.687Z,18.72
2017-09-26T13:52:36.083Z,18.66
2017-09-26T13:55:03.490Z,18.63
2017-09-26T13:57:30.890Z,18.52
2017-09-26T13:59:58.278Z,18.48
2017-09-26T14:02:25.686Z,18.42
2017-09-26T14:04:53.082Z,18.29
2017-09-26T14:07:20.487Z,18.18
2017-09-26T14:09:47.880Z,18.06
2017-09-26T14:12:15.282Z,18.02
2017-09-26T14:14:42.687Z,18.01
2017-09-26T14:17:10.089Z,18.03
2017-09-26T14:19:37.485Z,18.04
2017-09-26T14:22:04.878Z,18.08
2017-09-26T14:24:32.315Z,18.13
2017-09-26T14:26:59.710Z,18.15
2017-09-26T14:29:27.120Z,18.21
2017-09-26T14:31:54.520Z,18.22
2017-09-26T14:34:21.910Z,18.29
2017-09-26T14:36:49.314Z,18.34
2017-09-26T14:39:16.709Z,18.38
2017-09-26T14:41:44.119Z,18.46
2017-09-26T14:44:11.531Z,18.47
2017-09-26T14:46:38.939Z,18.45
2017-09-26T14:49:06.334Z,18.42
2017-09-26T14:51:33.730Z,18.44
2017-09-26T14:54:01.132Z,18.47
2017-09-26T14:56:28.556Z,18.56
2017-09-26T14:58:55.947Z,18.71
2017-09-26T15:01:24.450Z,18.81
2017-09-26T15:03:51.859Z,18.93
2017-09-26T15:06:19.358Z,19.03
2017-09-26T15:08:46.754Z,18.90
2017-09-26T15:11:14.171Z,18.96
2017-09-26T15:13:41.567Z,18.84
2017-09-26T15:16:08.970Z,18.81
2017-09-26T15:18:36.370Z,18.83
2017-09-26T15:21:08.216Z,18.80
2017-09-26T15:23:35.605Z,18.84
2017-09-26T15:26:03.019Z,18.61
2017-09-26T15:28:30.422Z,18.63
2017-09-26T15:30:58.742Z,18.64
2017-09-26T15:33:26.148Z,18.67
2017-09-26T15:35:54.119Z,18.41
2017-09-26T15:38:21.526Z,18.29
2017-09-26T15:40:48.919Z,18.30
2017-09-26T15:43:16.315Z,18.53
2017-09-26T15:45:43.716Z,18.57
2017-09-26T15:48:11.114Z,18.46
2017-09-26T15:50:38.518Z,18.24
2017-09-26T15:53:05.919Z,18.39
2017-09-26T15:55:33.327Z,18.47
2017-09-26T15:58:00.977Z,18.57
2017-09-26T16:00:28.999Z,18.55
2017-09-26T16:02:57.284Z,18.31
2017-09-26T16:05:25.694Z,18.22
2017-09-26T16:07:53.175Z,18.14
2017-09-26T16:10:20.622Z,18.15
2017-09-26T16:12:48.030Z,18.19
2017-09-26T16:15:17.170Z,18.14
2017-09-26T16:17:45.338Z,18.06
2017-09-26T16:20:12.760Z,18.04
2017-09-26T16:22:40.154Z,18.09
2017-09-26T16:25:08.473Z,18.14
2017-09-26T16:27:37.613Z,17.97
2017-09-26T16:30:05.027Z,17.94
2017-09-26T16:32:33.069Z,17.68
2017-09-26T16:35:00.522Z,17.78
2017-09-26T16:37:27.922Z,17.81
2017-09-26T16:39:55.322Z,17.77
2017-09-26T16:42:22.723Z,17.63
2017-09-26T16:44:50.118Z,17.62
2017-09-26T16:47:17.526Z,17.54
2017-09-26T16:49:44.923Z,17.45
2017-09-26T16:52:12.320Z,17.36
2017-09-26T16:54:39.722Z,17.26
2017-09-26T16:57:07.122Z,17.17
2017-09-26T16:59:34.519Z,17.11
2017-09-26T17:02:01.920Z,17.01
2017-09-26T17:04:29.322Z,16.93
2017-09-26T17:06:56.719Z,16.83
2017-09-26T17:09:24.116Z,16.80
2017-09-26T17:11:51.518Z,16.77
2017-09-26T17:14:18.915Z,16.66
2017-09-26T17:16:46.319Z,16.51
2017-09-26T17:19:13.713Z,16.42
2017-09-26T17:21:43.054Z,16.36
2017-09-26T17:24:10.458Z,16.29
2017-09-26T17:26:37.962Z,16.20
2017-09-26T17:29:05.383Z,16.14
2017-09-26T17:31:32.775Z,16.15
2017-09-26T17:34:00.174Z,16.18
2017-09-26T17:36:27.576Z,16.15
2017-09-26T17:38:54.983Z,16.14
2017-09-26T17:41:22.383Z,16.20
2017-09-26T17:43:49.783Z,16.21
2017-09-26T17:46:17.187Z,16.22
2017-09-26T17:48:44.578Z,16.05
2017-09-26T17:51:11.987Z,15.95
2017-09-26T17:53:39.378Z,16.08
2017-09-26T17:56:06.786Z,16.11
2017-09-26T17:58:34.188Z,15.93
2017-09-26T18:01:01.603Z,15.97
2017-09-26T18:03:29.007Z,16.01
2017-09-26T18:06:02.367Z,15.86
2017-09-26T18:08:29.767Z,15.81
2017-09-26T18:10:57.172Z,15.83
2017-09-26T18:13:24.574Z,15.87
2017-09-26T18:15:51.978Z,16.02
2017-09-26T18:18:19.386Z,16.04
2017-09-26T18:20:46.786Z,16.10
2017-09-26T18:23:20.294Z,16.21
2017-09-26T18:25:47.716Z,16.18
2017-09-26T18:28:15.106Z,16.18
2017-09-26T18:30:42.810Z,16.12
2017-09-26T18:33:10.206Z,16.11
2017-09-26T18:35:37.613Z,16.00
2017-09-26T18:38:05.014Z,16.04
2017-09-26T18:40:32.415Z,15.99
2017-09-26T18:42:59.814Z,15.94
2017-09-26T18:45:27.218Z,15.86
2017-09-26T18:47:54.615Z,15.79
2017-09-26T18:50:22.023Z,15.72
2017-09-26T18:52:49.414Z,15.64
2017-09-26T18:55:16.883Z,15.61
2017-09-26T18:57:44.310Z,15.54
2017-09-26T19:00:12.272Z,15.48
2017-09-26T19:02:39.684Z,15.48
2017-09-26T19:05:07.092Z,15.47
2017-09-26T19:07:34.500Z,15.36
2017-09-26T19:10:01.903Z,15.37
2017-09-26T19:12:29.321Z,15.20
2017-09-26T19:14:56.721Z,15.16
2017-09-26T19:17:24.133Z,15.13
2017-09-26T19:19:51.547Z,15.08
2017-09-26T19:22:18.958Z,15.06
2017-09-26T19:24:46.367Z,15.08
2017-09-26T19:27:13.771Z,14.92
2017-09-26T19:29:41.166Z,14.94
2017-09-26T19:32:08.596Z,14.90
2017-09-26T19:34:35.987Z,14.92
2017-09-26T19:37:03.381Z,14.86
2017-09-26T19:39:30.787Z,14.90
2017-09-26T19:41:58.183Z,14.79
2017-09-26T19:44:25.582Z,14.82
2017-09-26T19:46:52.988Z,14.81
2017-09-26T19:49:20.391Z,14.79
2017-09-26T19:51:47.805Z,14.70
2017-09-26T19:54:15.186Z,14.62
2017-09-26T19:56:42.594Z,14.58
2017-09-26T19:59:09.994Z,14.58
2017-09-26T20:01:37.396Z,14.60
2017-09-26T20:04:11.267Z,14.46
2017-09-26T20:06:38.671Z,14.51
2017-09-26T20:09:06.067Z,14.45
2017-09-26T20:11:33.478Z,14.42
2017-09-26T20:14:00.870Z,14.49
2017-09-26T20:16:28.263Z,14.45
2017-09-26T20:18:55.695Z,14.42
2017-09-26T20:21:23.054Z,14.43
2017-09-26T20:23:50.449Z,14.50
2017-09-26T20:26:17.847Z,14.49
2017-09-26T20:28:45.250Z,14.56
2017-09-26T20:31:12.647Z,14.55
2017-09-26T20:33:40.051Z,14.51
2017-09-26T20:36:07.446Z,14.47
2017-09-26T20:38:34.844Z,14.42
2017-09-26T20:41:02.252Z,14.41
2017-09-26T20:43:29.695Z,14.37
2017-09-26T20:45:57.095Z,14.31
2017-09-26T20:48:24.490Z,14.31
2017-09-26T20:50:51.899Z,14.27
2017-09-26T20:53:19.290Z,14.23
2017-09-26T20:55:46.699Z,14.17
2017-09-26T20:58:14.102Z,14.16
2017-09-26T21:00:41.509Z,14.13
2017-09-26T21:03:08.905Z,14.08
2017-09-26T21:05:36.303Z,14.03
2017-09-26T21:08:03.702Z,14.01
2017-09-26T21:10:31.110Z,13.98
2017-09-26T21:12:58.512Z,13.96
2017-09-26T21:15:25.907Z,13.92
2017-09-26T21:17:53.310Z,13.89
2017-09-26T21:20:20.704Z,13.90
2017-09-26T21:22:48.101Z,13.88
2017-09-26T21:25:15.502Z,13.86
2017-09-26T21:27:42.903Z,13.90
2017-09-26T21:30:10.306Z,13.90
2017-09-26T21:32:37.703Z,13.88
2017-09-26T21:35:05.103Z,13.88
2017-09-26T21:37:32.507Z,13.82
2017-09-26T21:39:59.915Z,13.81
2017-09-26T21:42:27.311Z,13.92
2017-09-26T21:44:54.708Z,14.04
2017-09-26T21:47:22.111Z,14.10
2017-09-26T21:49:49.503Z,14.13
2017-09-26T21:52:16.902Z,14.19
2017-09-26T21:54:44.297Z,14.17
2017-09-26T21:57:11.703Z,14.09
2017-09-26T21:59:39.128Z,14.09
2017-09-26T22:02:06.494Z,14.10
2017-09-26T22:04:33.898Z,14.17
2017-09-26T22:07:01.293Z,14.21
2017-09-26T22:09:28.699Z,14.29
2017-09-26T22:11:56.102Z,14.37
2017-09-26T22:14:23.506Z,14.40
2017-09-26T22:16:50.898Z,14.45
2017-09-26T22:19:18.302Z,14.47
2017-09-26T22:21:45.698Z,14.48
2017-09-26T22:24:13.097Z,14.48
2017-09-26T22:26:40.494Z,14.49
2017-09-26T22:29:07.887Z,14.53
2017-09-26T22:31:35.282Z,14.56
2017-09-26T22:34:02.686Z,14.58
2017-09-26T22:36:30.082Z,14.59
2017-09-26T22:38:57.492Z,14.58
2017-09-26T22:41:24.890Z,14.59
2017-09-26T22:43:52.287Z,14.63
2017-09-26T22:46:19.691Z,14.66
2017-09-26T22:48:47.099Z,14.66
2017-09-26T22:51:14.498Z,14.62
2017-09-26T22:53:41.899Z,14.57
2017-09-26T22:56:09.298Z,14.55
2017-09-26T22:58:36.703Z,14.58
2017-09-26T23:01:04.094Z,14.62
2017-09-26T23:03:31.506Z,14.60
2017-09-26T23:05:58.902Z,14.59
2017-09-26T23:08:26.305Z,14.55
2017-09-26T23:10:53.698Z,14.56
2017-09-26T23:13:21.091Z,14.61
2017-09-26T23:15:48.490Z,14.63
2017-09-26T23:18:15.892Z,14.63
2017-09-26T23:20:43.291Z,14.62
2017-09-26T23:23:10.682Z,14.61
2017-09-26T23:25:38.087Z,14.60
2017-09-26T23:28:05.478Z,14.58
2017-09-26T23:30:32.874Z,14.57
2017-09-26T23:33:00.280Z,14.54
2017-09-26T23:35:27.672Z,14.51
2017-09-26T23:37:55.070Z,14.50
2017-09-26T23:40:22.462Z,14.48
2017-09-26T23:42:49.863Z,14.45
2017-09-26T23:45:17.253Z,14.41
2017-09-26T23:47:44.671Z,14.36
2017-09-26T23:50:12.065Z,14.23
2017-09-26T23:52:39.466Z,14.21
2017-09-26T23:55:06.870Z,14.22
2017-09-26T23:57:34.271Z,14.19
